Aérodrome :
LOGIN :

S'inscrire | Disclaimer

   EN    FR    IT 

 










Légende :    VFR   VFR Marginal   IFR   IFR Intensif   IFR Très Intensif
Visi : 
Plafond : 
>= 8 km
>= 3000ft
5 à 8 km
1000 à 3000 ft
1500m à 5 km
500 à 1000 ft
800 à 1500m
200 à 500 ft
< 800m
< 200 ft
Symboles :   Orages  Brouillard  Fortes neiges  Fortes précipitations  Vent > 20 kt
SIGMETs :   Divers  Orages  Givrage  Turbulence  Onde Orograph.  Cendres Volcan.






- Altitude de l'aérodrome : 122 ft
- Code IATA : TXL


EDDT - Berlin Tegel Int.

DERNIER METAR :
  • 171520Z 22012KT 9999 FEW048 10/02 Q1012 NOSIG

METARs EXPIRÉS :
  • 171450Z 23012KT 9999 FEW044 10/02 Q1012 TEMPO 23015G25KT
  • 171420Z 23013KT 200V270 9999 FEW040 11/02 Q1012 TEMPO 23015G25KT
  • 171350Z 23014KT 200V260 9999 FEW041 11/02 Q1012 TEMPO 23015G25KT
  • 171320Z 24015KT 200V260 9999 FEW045 11/01 Q1012 TEMPO 24015G30KT
  • 171250Z 23018KT 200V260 9999 FEW040 11/01 Q1012 TEMPO 24015G30KT

TAF TAF EDDT
Valide du 17 à 12h jusqu'au 18 à 12h UTC


171100Z 1712/1812 24015KT 9999 SCT045
TEMPO 1712/1715 23015G30KT
TEMPO 1806/1812 25020G30KT



MET'MAP, la Météo Aéronautique d'un coup d'oeil ! - Copyright ORBIFLY Décembre 2007 - Disclaimer

ORBIFLY MET'MAP TEAM :

Programmation & Développement : Alexandra Zaïnal
Sur une idée originale de : Baudouin d'Aumeries
Assistance à la programmation : Marc-Olivier Méhu
Soutien technique & logistique : Manuel Goepfert

Contact : metmap@orbifly.com




SOURCES & CREDITS :

   NOAA